sensor_id;sensor_type;location;lat;lon;timestamp;temperature;humidity
12901;DHT22;6518;50.930;5.344;2023-01-29T00:01:30;0.50;87.40
12901;DHT22;6518;50.930;5.344;2023-01-29T00:03:57;0.50;87.70
12901;DHT22;6518;50.930;5.344;2023-01-29T00:06:24;0.50;87.50
12901;DHT22;6518;50.930;5.344;2023-01-29T00:08:50;0.50;87.40
12901;DHT22;6518;50.930;5.344;2023-01-29T00:11:17;0.50;87.40
12901;DHT22;6518;50.930;5.344;2023-01-29T00:13:45;0.50;87.10
12901;DHT22;6518;50.930;5.344;2023-01-29T00:16:12;0.50;87.30
12901;DHT22;6518;50.930;5.344;2023-01-29T00:18:40;0.50;87.40
12901;DHT22;6518;50.930;5.344;2023-01-29T00:21:08;0.50;87.30
12901;DHT22;6518;50.930;5.344;2023-01-29T00:23:35;0.50;87.30
12901;DHT22;6518;50.930;5.344;2023-01-29T00:26:02;0.50;87.20
12901;DHT22;6518;50.930;5.344;2023-01-29T00:28:29;0.40;87.20
12901;DHT22;6518;50.930;5.344;2023-01-29T00:30:56;0.40;87.30
12901;DHT22;6518;50.930;5.344;2023-01-29T00:33:23;0.40;87.30
12901;DHT22;6518;50.930;5.344;2023-01-29T00:35:51;0.30;87.40
12901;DHT22;6518;50.930;5.344;2023-01-29T00:38:18;0.30;87.60
12901;DHT22;6518;50.930;5.344;2023-01-29T00:40:45;0.30;87.60
12901;DHT22;6518;50.930;5.344;2023-01-29T00:43:30;0.30;87.80
12901;DHT22;6518;50.930;5.344;2023-01-29T00:46:23;0.30;87.60
12901;DHT22;6518;50.930;5.344;2023-01-29T00:48:50;0.30;87.70
12901;DHT22;6518;50.930;5.344;2023-01-29T00:51:18;0.30;87.70
12901;DHT22;6518;50.930;5.344;2023-01-29T00:53:45;0.30;87.80
12901;DHT22;6518;50.930;5.344;2023-01-29T00:56:12;0.30;87.80
12901;DHT22;6518;50.930;5.344;2023-01-29T00:58:39;0.30;87.90
12901;DHT22;6518;50.930;5.344;2023-01-29T01:01:06;0.20;88.00
12901;DHT22;6518;50.930;5.344;2023-01-29T01:03:34;0.30;88.10
12901;DHT22;6518;50.930;5.344;2023-01-29T01:06:08;0.20;88.10
12901;DHT22;6518;50.930;5.344;2023-01-29T01:08:36;0.20;88.10
12901;DHT22;6518;50.930;5.344;2023-01-29T01:11:21;0.20;88.20
12901;DHT22;6518;50.930;5.344;2023-01-29T01:13:48;0.20;88.30
12901;DHT22;6518;50.930;5.344;2023-01-29T01:16:16;0.20;88.50
12901;DHT22;6518;50.930;5.344;2023-01-29T01:18:45;0.20;88.70
12901;DHT22;6518;50.930;5.344;2023-01-29T01:21:11;0.20;88.80
12901;DHT22;6518;50.930;5.344;2023-01-29T01:23:40;0.20;88.70
12901;DHT22;6518;50.930;5.344;2023-01-29T01:26:09;0.20;88.80
12901;DHT22;6518;50.930;5.344;2023-01-29T01:28:36;0.20;88.90
12901;DHT22;6518;50.930;5.344;2023-01-29T01:31:08;0.20;89.10
12901;DHT22;6518;50.930;5.344;2023-01-29T01:33:36;0.20;89.00
12901;DHT22;6518;50.930;5.344;2023-01-29T01:36:04;0.10;89.00
12901;DHT22;6518;50.930;5.344;2023-01-29T01:38:35;0.10;89.10
12901;DHT22;6518;50.930;5.344;2023-01-29T01:41:10;0.10;89.30
12901;DHT22;6518;50.930;5.344;2023-01-29T01:43:49;0.10;89.40
12901;DHT22;6518;50.930;5.344;2023-01-29T01:46:16;0.10;89.40
12901;DHT22;6518;50.930;5.344;2023-01-29T01:48:44;0.00;89.40
12901;DHT22;6518;50.930;5.344;2023-01-29T01:51:14;0.00;89.50
12901;DHT22;6518;50.930;5.344;2023-01-29T01:53:43;0.00;90.20
12901;DHT22;6518;50.930;5.344;2023-01-29T01:56:16;0.00;89.60
12901;DHT22;6518;50.930;5.344;2023-01-29T01:58:47;0.00;89.80
12901;DHT22;6518;50.930;5.344;2023-01-29T02:01:16;0.00;90.00
12901;DHT22;6518;50.930;5.344;2023-01-29T02:03:48;0.00;90.00
12901;DHT22;6518;50.930;5.344;2023-01-29T02:06:34;0.00;90.00
12901;DHT22;6518;50.930;5.344;2023-01-29T02:09:21;0.00;90.00
12901;DHT22;6518;50.930;5.344;2023-01-29T02:12:02;0.00;90.00
12901;DHT22;6518;50.930;5.344;2023-01-29T02:14:29;0.00;90.00
12901;DHT22;6518;50.930;5.344;2023-01-29T02:16:59;0.00;90.00
12901;DHT22;6518;50.930;5.344;2023-01-29T02:19:37;0.00;90.10
12901;DHT22;6518;50.930;5.344;2023-01-29T02:28:18;0.00;90.20
12901;DHT22;6518;50.930;5.344;2023-01-29T02:30:52;0.00;90.10
12901;DHT22;6518;50.930;5.344;2023-01-29T02:33:28;0.00;90.20
12901;DHT22;6518;50.930;5.344;2023-01-29T02:36:02;0.00;90.10
12901;DHT22;6518;50.930;5.344;2023-01-29T02:38:38;-0.10;90.10
12901;DHT22;6518;50.930;5.344;2023-01-29T02:41:11;-0.10;90.20
12901;DHT22;6518;50.930;5.344;2023-01-29T02:43:44;-0.10;90.20
12901;DHT22;6518;50.930;5.344;2023-01-29T02:46:17;-0.10;90.20
12901;DHT22;6518;50.930;5.344;2023-01-29T02:48:52;-0.10;90.20
12901;DHT22;6518;50.930;5.344;2023-01-29T02:51:24;-0.10;90.20
12901;DHT22;6518;50.930;5.344;2023-01-29T02:54:00;-0.10;90.20
12901;DHT22;6518;50.930;5.344;2023-01-29T02:56:34;-0.20;90.20
12901;DHT22;6518;50.930;5.344;2023-01-29T02:59:07;-0.20;90.20
12901;DHT22;6518;50.930;5.344;2023-01-29T03:01:37;-0.20;90.20
12901;DHT22;6518;50.930;5.344;2023-01-29T03:04:08;-0.30;90.30
12901;DHT22;6518;50.930;5.344;2023-01-29T03:06:40;-0.30;90.40
12901;DHT22;6518;50.930;5.344;2023-01-29T03:09:11;-0.30;90.40
12901;DHT22;6518;50.930;5.344;2023-01-29T03:11:43;-0.30;90.40
12901;DHT22;6518;50.930;5.344;2023-01-29T03:14:15;-0.30;90.40
12901;DHT22;6518;50.930;5.344;2023-01-29T03:16:48;-0.30;90.50
12901;DHT22;6518;50.930;5.344;2023-01-29T03:19:18;-0.40;90.50
12901;DHT22;6518;50.930;5.344;2023-01-29T03:21:49;-0.30;90.60
12901;DHT22;6518;50.930;5.344;2023-01-29T03:24:25;-0.40;90.60
12901;DHT22;6518;50.930;5.344;2023-01-29T03:27:14;-0.40;90.70
12901;DHT22;6518;50.930;5.344;2023-01-29T03:30:03;-0.40;90.70
12901;DHT22;6518;50.930;5.344;2023-01-29T03:32:49;-0.40;90.70
12901;DHT22;6518;50.930;5.344;2023-01-29T03:35:20;-0.40;90.70
12901;DHT22;6518;50.930;5.344;2023-01-29T03:38:00;-0.50;90.70
12901;DHT22;6518;50.930;5.344;2023-01-29T03:40:28;-0.40;90.80
12901;DHT22;6518;50.930;5.344;2023-01-29T03:43:07;-0.40;90.80
12901;DHT22;6518;50.930;5.344;2023-01-29T03:45:41;-0.50;90.80
12901;DHT22;6518;50.930;5.344;2023-01-29T03:48:16;-0.40;90.90
12901;DHT22;6518;50.930;5.344;2023-01-29T03:50:51;-0.50;90.90
12901;DHT22;6518;50.930;5.344;2023-01-29T03:53:22;-0.50;90.90
12901;DHT22;6518;50.930;5.344;2023-01-29T03:55:56;-0.50;91.00
12901;DHT22;6518;50.930;5.344;2023-01-29T03:58:33;-0.50;91.00
12901;DHT22;6518;50.930;5.344;2023-01-29T04:01:05;-0.50;91.10
12901;DHT22;6518;50.930;5.344;2023-01-29T04:03:37;-0.50;91.10
12901;DHT22;6518;50.930;5.344;2023-01-29T04:06:10;-0.60;91.30
12901;DHT22;6518;50.930;5.344;2023-01-29T04:08:41;-0.60;91.40
12901;DHT22;6518;50.930;5.344;2023-01-29T04:11:14;-0.60;91.50
12901;DHT22;6518;50.930;5.344;2023-01-29T04:13:43;-0.60;91.40
12901;DHT22;6518;50.930;5.344;2023-01-29T04:16:15;-0.50;91.50
12901;DHT22;6518;50.930;5.344;2023-01-29T04:18:44;-0.50;91.60
12901;DHT22;6518;50.930;5.344;2023-01-29T04:21:11;-0.50;91.60
12901;DHT22;6518;50.930;5.344;2023-01-29T04:23:38;-0.50;91.60
12901;DHT22;6518;50.930;5.344;2023-01-29T04:26:18;-0.50;91.60
12901;DHT22;6518;50.930;5.344;2023-01-29T04:29:02;-0.50;91.70
12901;DHT22;6518;50.930;5.344;2023-01-29T04:31:35;-0.50;91.80
12901;DHT22;6518;50.930;5.344;2023-01-29T04:34:11;-0.50;91.80
12901;DHT22;6518;50.930;5.344;2023-01-29T04:36:48;-0.40;91.90
12901;DHT22;6518;50.930;5.344;2023-01-29T04:39:24;-0.50;91.90
12901;DHT22;6518;50.930;5.344;2023-01-29T04:42:08;-0.50;92.00
12901;DHT22;6518;50.930;5.344;2023-01-29T04:44:56;-0.30;92.10
12901;DHT22;6518;50.930;5.344;2023-01-29T04:47:46;-0.50;92.10
12901;DHT22;6518;50.930;5.344;2023-01-29T04:50:31;-0.50;92.30
12901;DHT22;6518;50.930;5.344;2023-01-29T04:53:27;-0.50;92.30
12901;DHT22;6518;50.930;5.344;2023-01-29T04:56:05;-0.40;92.40
12901;DHT22;6518;50.930;5.344;2023-01-29T04:58:47;-0.40;92.40
12901;DHT22;6518;50.930;5.344;2023-01-29T05:01:18;-0.40;92.50
12901;DHT22;6518;50.930;5.344;2023-01-29T05:03:49;-0.40;92.50
12901;DHT22;6518;50.930;5.344;2023-01-29T05:06:20;-0.40;92.60
12901;DHT22;6518;50.930;5.344;2023-01-29T05:08:48;-0.50;92.60
12901;DHT22;6518;50.930;5.344;2023-01-29T05:11:17;-0.50;92.80
12901;DHT22;6518;50.930;5.344;2023-01-29T05:13:45;-0.50;92.90
12901;DHT22;6518;50.930;5.344;2023-01-29T05:16:17;-0.50;93.00
12901;DHT22;6518;50.930;5.344;2023-01-29T05:18:45;-0.50;93.00
12901;DHT22;6518;50.930;5.344;2023-01-29T05:21:13;-0.50;93.20
12901;DHT22;6518;50.930;5.344;2023-01-29T05:23:40;-0.50;93.40
12901;DHT22;6518;50.930;5.344;2023-01-29T05:26:18;-0.50;93.40
12901;DHT22;6518;50.930;5.344;2023-01-29T05:29:02;-0.50;93.40
12901;DHT22;6518;50.930;5.344;2023-01-29T05:31:29;-0.50;93.70
12901;DHT22;6518;50.930;5.344;2023-01-29T05:33:56;-0.50;93.70
12901;DHT22;6518;50.930;5.344;2023-01-29T05:36:24;-0.50;93.90
12901;DHT22;6518;50.930;5.344;2023-01-29T05:38:51;-0.50;93.90
12901;DHT22;6518;50.930;5.344;2023-01-29T05:41:18;-0.50;94.10
12901;DHT22;6518;50.930;5.344;2023-01-29T05:43:45;-0.50;94.10
12901;DHT22;6518;50.930;5.344;2023-01-29T05:46:12;-0.50;94.20
12901;DHT22;6518;50.930;5.344;2023-01-29T05:48:39;-0.40;94.30
12901;DHT22;6518;50.930;5.344;2023-01-29T05:51:05;-0.40;94.70
12901;DHT22;6518;50.930;5.344;2023-01-29T05:53:34;-0.40;94.30
12901;DHT22;6518;50.930;5.344;2023-01-29T05:56:01;-0.40;94.30
12901;DHT22;6518;50.930;5.344;2023-01-29T05:58:29;-0.40;94.30
12901;DHT22;6518;50.930;5.344;2023-01-29T06:00:56;-0.40;94.40
12901;DHT22;6518;50.930;5.344;2023-01-29T06:03:23;-0.40;94.50
12901;DHT22;6518;50.930;5.344;2023-01-29T06:05:50;-0.40;94.50
12901;DHT22;6518;50.930;5.344;2023-01-29T06:08:17;-0.40;94.60
12901;DHT22;6518;50.930;5.344;2023-01-29T06:10:45;-0.30;94.70
12901;DHT22;6518;50.930;5.344;2023-01-29T06:13:12;-0.30;94.70
12901;DHT22;6518;50.930;5.344;2023-01-29T06:15:38;-0.30;94.90
12901;DHT22;6518;50.930;5.344;2023-01-29T06:18:06;-0.30;94.80
12901;DHT22;6518;50.930;5.344;2023-01-29T06:20:33;-0.30;94.80
12901;DHT22;6518;50.930;5.344;2023-01-29T06:22:59;-0.20;94.80
12901;DHT22;6518;50.930;5.344;2023-01-29T06:25:26;-0.20;94.80
12901;DHT22;6518;50.930;5.344;2023-01-29T06:27:54;-0.20;94.80
12901;DHT22;6518;50.930;5.344;2023-01-29T06:30:21;-0.20;94.80
12901;DHT22;6518;50.930;5.344;2023-01-29T06:32:48;-0.10;94.90
12901;DHT22;6518;50.930;5.344;2023-01-29T06:35:15;-0.20;94.80
12901;DHT22;6518;50.930;5.344;2023-01-29T06:37:41;-0.10;94.90
12901;DHT22;6518;50.930;5.344;2023-01-29T06:40:09;-0.10;95.00
12901;DHT22;6518;50.930;5.344;2023-01-29T06:42:36;-0.10;95.20
12901;DHT22;6518;50.930;5.344;2023-01-29T06:45:05;-0.10;95.20
12901;DHT22;6518;50.930;5.344;2023-01-29T06:47:32;-0.10;95.10
12901;DHT22;6518;50.930;5.344;2023-01-29T06:49:59;-0.10;95.20
12901;DHT22;6518;50.930;5.344;2023-01-29T06:52:26;-0.10;95.20
12901;DHT22;6518;50.930;5.344;2023-01-29T06:54:53;-0.10;95.40
12901;DHT22;6518;50.930;5.344;2023-01-29T06:57:20;-0.10;95.70
12901;DHT22;6518;50.930;5.344;2023-01-29T06:59:48;-0.20;95.80
12901;DHT22;6518;50.930;5.344;2023-01-29T07:02:16;-0.10;95.90
12901;DHT22;6518;50.930;5.344;2023-01-29T07:04:43;-0.10;96.00
12901;DHT22;6518;50.930;5.344;2023-01-29T07:07:10;-0.80;95.90
12901;DHT22;6518;50.930;5.344;2023-01-29T07:09:38;-0.40;95.90
12901;DHT22;6518;50.930;5.344;2023-01-29T07:12:06;-0.10;96.10
12901;DHT22;6518;50.930;5.344;2023-01-29T07:14:33;0.00;96.10
12901;DHT22;6518;50.930;5.344;2023-01-29T07:17:00;-0.10;96.10
12901;DHT22;6518;50.930;5.344;2023-01-29T07:19:29;-0.10;96.30
12901;DHT22;6518;50.930;5.344;2023-01-29T07:21:56;0.00;96.40
12901;DHT22;6518;50.930;5.344;2023-01-29T07:24:26;0.00;96.40
12901;DHT22;6518;50.930;5.344;2023-01-29T07:26:53;0.00;96.50
12901;DHT22;6518;50.930;5.344;2023-01-29T07:29:20;0.00;96.70
12901;DHT22;6518;50.930;5.344;2023-01-29T07:31:47;0.00;96.70
12901;DHT22;6518;50.930;5.344;2023-01-29T07:34:14;0.00;96.70
12901;DHT22;6518;50.930;5.344;2023-01-29T07:36:42;0.10;96.70
12901;DHT22;6518;50.930;5.344;2023-01-29T07:39:09;0.10;96.70
12901;DHT22;6518;50.930;5.344;2023-01-29T07:41:36;0.10;96.80
12901;DHT22;6518;50.930;5.344;2023-01-29T07:44:03;0.10;96.70
12901;DHT22;6518;50.930;5.344;2023-01-29T07:46:30;0.10;96.70
12901;DHT22;6518;50.930;5.344;2023-01-29T07:48:57;0.10;96.60
12901;DHT22;6518;50.930;5.344;2023-01-29T07:51:24;0.20;96.70
12901;DHT22;6518;50.930;5.344;2023-01-29T07:53:53;0.20;96.60
12901;DHT22;6518;50.930;5.344;2023-01-29T07:56:19;0.20;96.50
12901;DHT22;6518;50.930;5.344;2023-01-29T07:58:46;0.20;96.40
12901;DHT22;6518;50.930;5.344;2023-01-29T08:01:13;0.30;98.90
12901;DHT22;6518;50.930;5.344;2023-01-29T08:03:40;0.40;99.90
12901;DHT22;6518;50.930;5.344;2023-01-29T08:06:07;0.50;99.90
12901;DHT22;6518;50.930;5.344;2023-01-29T08:08:34;0.60;99.90
12901;DHT22;6518;50.930;5.344;2023-01-29T08:11:03;0.60;98.20
12901;DHT22;6518;50.930;5.344;2023-01-29T08:13:30;0.60;96.60
12901;DHT22;6518;50.930;5.344;2023-01-29T08:15:59;0.50;97.00
12901;DHT22;6518;50.930;5.344;2023-01-29T08:18:26;0.50;97.40
12901;DHT22;6518;50.930;5.344;2023-01-29T08:20:58;0.50;97.30
12901;DHT22;6518;50.930;5.344;2023-01-29T08:23:25;0.50;97.20
12901;DHT22;6518;50.930;5.344;2023-01-29T08:25:52;0.50;96.80
12901;DHT22;6518;50.930;5.344;2023-01-29T08:28:21;0.50;96.70
12901;DHT22;6518;50.930;5.344;2023-01-29T08:30:47;0.50;97.10
12901;DHT22;6518;50.930;5.344;2023-01-29T08:33:15;0.50;96.90
12901;DHT22;6518;50.930;5.344;2023-01-29T08:35:42;0.50;96.70
12901;DHT22;6518;50.930;5.344;2023-01-29T08:38:09;0.50;96.80
12901;DHT22;6518;50.930;5.344;2023-01-29T08:40:36;0.60;96.60
12901;DHT22;6518;50.930;5.344;2023-01-29T08:43:06;0.50;95.90
12901;DHT22;6518;50.930;5.344;2023-01-29T08:45:36;0.50;95.50
12901;DHT22;6518;50.930;5.344;2023-01-29T08:48:04;0.40;95.50
12901;DHT22;6518;50.930;5.344;2023-01-29T08:50:30;0.40;96.30
12901;DHT22;6518;50.930;5.344;2023-01-29T08:53:00;0.30;96.20
12901;DHT22;6518;50.930;5.344;2023-01-29T08:55:27;0.30;96.90
12901;DHT22;6518;50.930;5.344;2023-01-29T08:57:54;0.40;98.00
12901;DHT22;6518;50.930;5.344;2023-01-29T09:00:23;0.40;99.60
12901;DHT22;6518;50.930;5.344;2023-01-29T09:02:51;0.40;99.90
12901;DHT22;6518;50.930;5.344;2023-01-29T09:05:17;0.50;99.90
12901;DHT22;6518;50.930;5.344;2023-01-29T09:07:44;0.50;99.90
12901;DHT22;6518;50.930;5.344;2023-01-29T09:10:11;0.50;99.90
12901;DHT22;6518;50.930;5.344;2023-01-29T09:12:38;0.60;99.90
12901;DHT22;6518;50.930;5.344;2023-01-29T09:15:06;0.60;99.90
12901;DHT22;6518;50.930;5.344;2023-01-29T09:17:33;0.70;99.90
12901;DHT22;6518;50.930;5.344;2023-01-29T09:20:01;0.70;99.90
12901;DHT22;6518;50.930;5.344;2023-01-29T09:22:31;0.20;99.00
12901;DHT22;6518;50.930;5.344;2023-01-29T09:24:58;0.60;98.30
12901;DHT22;6518;50.930;5.344;2023-01-29T09:27:25;0.60;98.20
12901;DHT22;6518;50.930;5.344;2023-01-29T09:29:52;0.50;99.90
12901;DHT22;6518;50.930;5.344;2023-01-29T09:32:19;0.70;99.90
12901;DHT22;6518;50.930;5.344;2023-01-29T09:34:46;0.70;99.90
12901;DHT22;6518;50.930;5.344;2023-01-29T09:37:14;0.80;99.90
12901;DHT22;6518;50.930;5.344;2023-01-29T09:39:42;0.90;99.90
12901;DHT22;6518;50.930;5.344;2023-01-29T09:42:13;0.90;99.90
12901;DHT22;6518;50.930;5.344;2023-01-29T09:44:50;1.00;99.90
12901;DHT22;6518;50.930;5.344;2023-01-29T09:47:23;0.90;99.70
12901;DHT22;6518;50.930;5.344;2023-01-29T09:49:54;0.90;99.90
12901;DHT22;6518;50.930;5.344;2023-01-29T09:52:25;1.00;99.90
12901;DHT22;6518;50.930;5.344;2023-01-29T09:54:59;1.00;99.90
12901;DHT22;6518;50.930;5.344;2023-01-29T09:57:32;1.10;99.90
12901;DHT22;6518;50.930;5.344;2023-01-29T10:00:00;1.20;99.90
12901;DHT22;6518;50.930;5.344;2023-01-29T10:02:45;1.30;99.90
12901;DHT22;6518;50.930;5.344;2023-01-29T10:05:25;1.30;99.70
12901;DHT22;6518;50.930;5.344;2023-01-29T10:08:12;1.40;99.50
12901;DHT22;6518;50.930;5.344;2023-01-29T10:10:48;1.40;98.90
12901;DHT22;6518;50.930;5.344;2023-01-29T10:13:23;1.30;99.40
12901;DHT22;6518;50.930;5.344;2023-01-29T10:16:10;1.40;99.50
12901;DHT22;6518;50.930;5.344;2023-01-29T10:18:58;1.50;99.20
12901;DHT22;6518;50.930;5.344;2023-01-29T10:21:51;1.50;98.90
12901;DHT22;6518;50.930;5.344;2023-01-29T10:24:34;1.50;98.70
12901;DHT22;6518;50.930;5.344;2023-01-29T10:27:02;1.60;98.20
12901;DHT22;6518;50.930;5.344;2023-01-29T10:29:40;1.60;98.10
12901;DHT22;6518;50.930;5.344;2023-01-29T10:32:13;1.60;98.10
12901;DHT22;6518;50.930;5.344;2023-01-29T10:34:44;1.60;98.00
12901;DHT22;6518;50.930;5.344;2023-01-29T10:37:15;1.60;98.10
12901;DHT22;6518;50.930;5.344;2023-01-29T10:39:45;1.70;98.20
12901;DHT22;6518;50.930;5.344;2023-01-29T10:42:23;1.70;98.00
12901;DHT22;6518;50.930;5.344;2023-01-29T10:45:12;1.80;97.90
12901;DHT22;6518;50.930;5.344;2023-01-29T10:50:46;1.80;97.10
12901;DHT22;6518;50.930;5.344;2023-01-29T10:53:28;1.90;97.70
12901;DHT22;6518;50.930;5.344;2023-01-29T10:56:03;1.90;97.50
12901;DHT22;6518;50.930;5.344;2023-01-29T10:58:37;1.90;97.10
12901;DHT22;6518;50.930;5.344;2023-01-29T11:01:07;1.90;97.00
12901;DHT22;6518;50.930;5.344;2023-01-29T11:03:35;1.90;97.10
12901;DHT22;6518;50.930;5.344;2023-01-29T11:06:08;2.00;97.10
12901;DHT22;6518;50.930;5.344;2023-01-29T11:08:39;2.00;96.90
12901;DHT22;6518;50.930;5.344;2023-01-29T11:11:12;2.00;96.60
12901;DHT22;6518;50.930;5.344;2023-01-29T11:13:42;2.00;96.60
12901;DHT22;6518;50.930;5.344;2023-01-29T11:16:11;2.00;96.40
12901;DHT22;6518;50.930;5.344;2023-01-29T11:18:53;2.00;96.40
12901;DHT22;6518;50.930;5.344;2023-01-29T11:21:20;2.00;96.50
12901;DHT22;6518;50.930;5.344;2023-01-29T11:23:47;2.00;96.90
12901;DHT22;6518;50.930;5.344;2023-01-29T11:26:19;2.00;97.00
12901;DHT22;6518;50.930;5.344;2023-01-29T11:28:48;2.00;97.00
12901;DHT22;6518;50.930;5.344;2023-01-29T11:31:18;2.10;97.30
12901;DHT22;6518;50.930;5.344;2023-01-29T11:33:46;2.10;97.00
12901;DHT22;6518;50.930;5.344;2023-01-29T11:36:29;2.20;96.80
12901;DHT22;6518;50.930;5.344;2023-01-29T11:39:12;2.20;96.80
12901;DHT22;6518;50.930;5.344;2023-01-29T11:41:47;2.30;96.60
12901;DHT22;6518;50.930;5.344;2023-01-29T11:44:21;2.30;96.40
12901;DHT22;6518;50.930;5.344;2023-01-29T11:46:51;2.30;96.40
12901;DHT22;6518;50.930;5.344;2023-01-29T11:49:24;2.30;96.50
12901;DHT22;6518;50.930;5.344;2023-01-29T11:51:54;2.40;96.60
12901;DHT22;6518;50.930;5.344;2023-01-29T11:54:25;2.40;96.40
12901;DHT22;6518;50.930;5.344;2023-01-29T11:56:55;2.50;96.20
12901;DHT22;6518;50.930;5.344;2023-01-29T11:59:38;2.50;96.10
12901;DHT22;6518;50.930;5.344;2023-01-29T12:02:22;2.60;95.70
12901;DHT22;6518;50.930;5.344;2023-01-29T12:04:51;2.50;95.60
12901;DHT22;6518;50.930;5.344;2023-01-29T12:07:19;2.50;95.50
12901;DHT22;6518;50.930;5.344;2023-01-29T12:09:53;2.50;95.40
12901;DHT22;6518;50.930;5.344;2023-01-29T12:12:32;2.60;95.50
12901;DHT22;6518;50.930;5.344;2023-01-29T12:15:13;2.60;95.50
12901;DHT22;6518;50.930;5.344;2023-01-29T12:17:46;2.60;95.50
12901;DHT22;6518;50.930;5.344;2023-01-29T12:20:21;2.70;95.30
12901;DHT22;6518;50.930;5.344;2023-01-29T12:22:52;2.70;95.10
12901;DHT22;6518;50.930;5.344;2023-01-29T12:25:25;2.70;95.00
12901;DHT22;6518;50.930;5.344;2023-01-29T12:28:06;2.70;94.80
12901;DHT22;6518;50.930;5.344;2023-01-29T12:30:43;2.80;94.90
12901;DHT22;6518;50.930;5.344;2023-01-29T12:33:19;2.80;94.90
12901;DHT22;6518;50.930;5.344;2023-01-29T12:35:54;2.80;94.70
12901;DHT22;6518;50.930;5.344;2023-01-29T12:38:24;2.80;94.70
12901;DHT22;6518;50.930;5.344;2023-01-29T12:40:54;2.80;94.40
12901;DHT22;6518;50.930;5.344;2023-01-29T12:43:29;2.80;94.40
12901;DHT22;6518;50.930;5.344;2023-01-29T12:45:58;2.90;94.40
12901;DHT22;6518;50.930;5.344;2023-01-29T12:48:31;2.90;94.10
12901;DHT22;6518;50.930;5.344;2023-01-29T12:51:05;3.00;93.90
12901;DHT22;6518;50.930;5.344;2023-01-29T12:53:37;3.00;93.70
12901;DHT22;6518;50.930;5.344;2023-01-29T12:56:10;3.00;93.80
12901;DHT22;6518;50.930;5.344;2023-01-29T12:58:42;3.00;93.60
12901;DHT22;6518;50.930;5.344;2023-01-29T13:01:14;3.00;93.50
12901;DHT22;6518;50.930;5.344;2023-01-29T13:03:48;3.10;93.40
12901;DHT22;6518;50.930;5.344;2023-01-29T13:06:19;3.10;93.30
12901;DHT22;6518;50.930;5.344;2023-01-29T13:08:50;3.10;93.20
12901;DHT22;6518;50.930;5.344;2023-01-29T13:11:22;3.10;93.00
12901;DHT22;6518;50.930;5.344;2023-01-29T13:13:55;3.20;93.00
12901;DHT22;6518;50.930;5.344;2023-01-29T13:16:26;3.20;92.60
12901;DHT22;6518;50.930;5.344;2023-01-29T13:18:57;3.30;92.40
12901;DHT22;6518;50.930;5.344;2023-01-29T13:21:28;3.30;92.10
12901;DHT22;6518;50.930;5.344;2023-01-29T13:23:59;3.40;91.70
12901;DHT22;6518;50.930;5.344;2023-01-29T13:26:28;3.40;91.60
12901;DHT22;6518;50.930;5.344;2023-01-29T13:28:57;3.40;91.10
12901;DHT22;6518;50.930;5.344;2023-01-29T13:31:27;3.40;90.80
12901;DHT22;6518;50.930;5.344;2023-01-29T13:34:02;3.50;90.50
12901;DHT22;6518;50.930;5.344;2023-01-29T13:36:30;3.40;90.40
12901;DHT22;6518;50.930;5.344;2023-01-29T13:39:00;3.40;90.20
12901;DHT22;6518;50.930;5.344;2023-01-29T13:41:33;3.40;90.00
12901;DHT22;6518;50.930;5.344;2023-01-29T13:44:04;3.40;90.00
12901;DHT22;6518;50.930;5.344;2023-01-29T13:46:33;3.40;90.00
12901;DHT22;6518;50.930;5.344;2023-01-29T13:52:15;3.40;89.80
12901;DHT22;6518;50.930;5.344;2023-01-29T13:54:50;3.40;89.90
12901;DHT22;6518;50.930;5.344;2023-01-29T13:57:35;3.40;89.80
12901;DHT22;6518;50.930;5.344;2023-01-29T14:00:08;3.30;89.90
12901;DHT22;6518;50.930;5.344;2023-01-29T14:05:59;3.30;90.10
12901;DHT22;6518;50.930;5.344;2023-01-29T14:08:40;3.30;90.20
12901;DHT22;6518;50.930;5.344;2023-01-29T14:11:33;3.30;90.30
12901;DHT22;6518;50.930;5.344;2023-01-29T14:14:01;3.30;90.40
12901;DHT22;6518;50.930;5.344;2023-01-29T14:16:50;3.30;90.50
12901;DHT22;6518;50.930;5.344;2023-01-29T14:19:18;3.30;90.60
12901;DHT22;6518;50.930;5.344;2023-01-29T14:21:48;3.30;90.70
12901;DHT22;6518;50.930;5.344;2023-01-29T14:24:18;3.30;90.70
12901;DHT22;6518;50.930;5.344;2023-01-29T14:26:47;3.30;90.70
12901;DHT22;6518;50.930;5.344;2023-01-29T14:29:20;3.30;90.80
12901;DHT22;6518;50.930;5.344;2023-01-29T14:31:53;3.30;90.80
12901;DHT22;6518;50.930;5.344;2023-01-29T14:34:27;3.30;90.70
12901;DHT22;6518;50.930;5.344;2023-01-29T14:36:59;3.30;90.70
12901;DHT22;6518;50.930;5.344;2023-01-29T14:39:32;3.40;90.60
12901;DHT22;6518;50.930;5.344;2023-01-29T14:42:03;3.40;90.70
12901;DHT22;6518;50.930;5.344;2023-01-29T14:48:02;3.40;90.80
12901;DHT22;6518;50.930;5.344;2023-01-29T14:50:49;3.40;90.80
12901;DHT22;6518;50.930;5.344;2023-01-29T14:53:22;3.40;91.20
12901;DHT22;6518;50.930;5.344;2023-01-29T14:55:57;3.40;90.60
12901;DHT22;6518;50.930;5.344;2023-01-29T14:58:36;3.50;90.50
12901;DHT22;6518;50.930;5.344;2023-01-29T15:01:09;3.50;90.40
12901;DHT22;6518;50.930;5.344;2023-01-29T15:03:48;3.50;90.60
12901;DHT22;6518;50.930;5.344;2023-01-29T15:06:21;3.50;90.30
12901;DHT22;6518;50.930;5.344;2023-01-29T15:08:54;3.50;90.10
12901;DHT22;6518;50.930;5.344;2023-01-29T15:11:36;3.50;90.30
12901;DHT22;6518;50.930;5.344;2023-01-29T15:17:17;3.50;90.40
12901;DHT22;6518;50.930;5.344;2023-01-29T15:19:47;3.50;90.50
12901;DHT22;6518;50.930;5.344;2023-01-29T15:22:16;3.50;90.50
12901;DHT22;6518;50.930;5.344;2023-01-29T15:24:45;3.50;90.40
12901;DHT22;6518;50.930;5.344;2023-01-29T15:27:15;3.50;90.50
12901;DHT22;6518;50.930;5.344;2023-01-29T15:29:46;3.50;90.50
12901;DHT22;6518;50.930;5.344;2023-01-29T15:32:17;3.50;90.40
12901;DHT22;6518;50.930;5.344;2023-01-29T15:34:56;3.50;90.50
12901;DHT22;6518;50.930;5.344;2023-01-29T15:37:27;3.50;90.40
12901;DHT22;6518;50.930;5.344;2023-01-29T15:39:53;3.50;90.40
12901;DHT22;6518;50.930;5.344;2023-01-29T15:42:21;3.60;90.40
12901;DHT22;6518;50.930;5.344;2023-01-29T15:44:51;3.50;90.40
12901;DHT22;6518;50.930;5.344;2023-01-29T15:47:22;3.50;90.30
12901;DHT22;6518;50.930;5.344;2023-01-29T15:49:50;3.50;90.30
12901;DHT22;6518;50.930;5.344;2023-01-29T15:52:22;3.50;90.30
12901;DHT22;6518;50.930;5.344;2023-01-29T15:54:52;3.50;90.30
12901;DHT22;6518;50.930;5.344;2023-01-29T15:57:24;3.50;90.40
12901;DHT22;6518;50.930;5.344;2023-01-29T15:59:54;3.50;90.40
12901;DHT22;6518;50.930;5.344;2023-01-29T16:02:38;3.50;90.30
12901;DHT22;6518;50.930;5.344;2023-01-29T16:05:10;3.50;90.20
12901;DHT22;6518;50.930;5.344;2023-01-29T16:07:40;3.50;90.30
12901;DHT22;6518;50.930;5.344;2023-01-29T16:10:14;3.50;90.30
12901;DHT22;6518;50.930;5.344;2023-01-29T16:12:42;3.40;90.20
12901;DHT22;6518;50.930;5.344;2023-01-29T16:15:20;3.50;90.20
12901;DHT22;6518;50.930;5.344;2023-01-29T16:17:47;3.50;90.10
12901;DHT22;6518;50.930;5.344;2023-01-29T16:20:28;3.50;90.20
12901;DHT22;6518;50.930;5.344;2023-01-29T16:22:58;3.50;90.20
12901;DHT22;6518;50.930;5.344;2023-01-29T16:25:28;3.40;90.20
12901;DHT22;6518;50.930;5.344;2023-01-29T16:27:56;3.40;90.10
12901;DHT22;6518;50.930;5.344;2023-01-29T16:30:25;3.40;90.20
12901;DHT22;6518;50.930;5.344;2023-01-29T16:32:59;3.40;90.20
12901;DHT22;6518;50.930;5.344;2023-01-29T16:35:26;3.40;90.20
12901;DHT22;6518;50.930;5.344;2023-01-29T16:37:58;3.40;90.20
12901;DHT22;6518;50.930;5.344;2023-01-29T16:40:29;3.40;90.20
12901;DHT22;6518;50.930;5.344;2023-01-29T16:43:44;3.40;90.20
12901;DHT22;6518;50.930;5.344;2023-01-29T16:46:22;3.40;90.50
12901;DHT22;6518;50.930;5.344;2023-01-29T16:48:50;3.40;90.20